Sultan Abdul Halim Airport Alor Satar MY
ICAO: WMKA
IATA:
Category: Medium
Scheduled Services:

Elevation: 15 ft
TransAlt. 11000 ft.

Airport Communications:
ALOR STAR APP:122.3
ALOR STAR GND:121.6
ALOR STAR TWR:122.3

WMKA Zoom In..

If you have problems with the map follow the link
https://www.worldairports.se/pages/airport.php?
ICAO=WMKA

Runways:

(A) RW 04 length 9006 ft width 148 ft
ILS 111.70 / hdg 43

(B) RW 22 length 9006 ft width 148 ft
---- / hdg 223

Location; WMKA
Day. 05 / Time. 15.00 Zulu
* QNH: 1013
* Temperature: 26° c. 78.8°f.
* Wind from: 050° Speed 04 kn.
Dewpoint: 23° c.
Visibility: 10 km or more.
Clouds: Few 2800 ft.

WMKA 051500Z 05004KT 340V120 9999 FEW028 26/23 Q1013


Wind From 050°
Speed 04 kn.

 
 
jpsmedia worldairports.se 2019   terms of use